Time;durP1;ratioP1;P1;durP2;ratioP2;P2;SDS_P1;SDS_P2;PMS_P1;PMS_P2;Temp;Humidity;BMP_temperature;BMP_pressure;BME280_temperature;BME280_humidity;BME280_pressure;Samples;Min_cycle;Max_cycle;Signal;HPM_P1;HPM_P2
2023/01/28 00:00:32;;;;;;;6.68;4.45;;;3.20;99.90;;;;;;5028787;28;20324;-76
2023/01/28 00:03:05;;;;;;;10.07;4.80;;;3.20;99.90;;;;;;5049968;28;20252;-77
2023/01/28 00:05:33;;;;;;;6.90;4.28;;;3.20;99.90;;;;;;5056021;28;20248;-76
2023/01/28 00:08:01;;;;;;;4.40;4.00;;;3.20;99.90;;;;;;4988570;28;20227;-78
2023/01/28 00:10:31;;;;;;;8.90;4.53;;;3.10;99.90;;;;;;5020506;28;20235;-78
2023/01/28 00:13:01;;;;;;;5.72;4.65;;;3.10;99.90;;;;;;5015846;28;20315;-78
2023/01/28 00:15:31;;;;;;;7.47;4.85;;;3.10;99.90;;;;;;5022454;28;20306;-76
2023/01/28 00:18:18;;;;;;;5.30;3.95;;;3.10;99.90;;;;;;4996312;28;20232;-78
2023/01/28 00:21:00;;;;;;;6.30;3.90;;;3.10;99.90;;;;;;4981443;28;20232;-78
2023/01/28 00:23:32;;;;;;;4.85;3.88;;;3.10;99.90;;;;;;4988838;28;20232;-75
2023/01/28 00:26:05;;;;;;;7.28;4.65;;;3.00;99.90;;;;;;5047461;28;20228;-78
2023/01/28 00:28:38;;;;;;;6.05;3.83;;;3.00;99.90;;;;;;4987844;28;20304;-78
2023/01/28 00:31:18;;;;;;;6.85;4.25;;;3.00;99.90;;;;;;5004271;28;20294;-78
2023/01/28 00:33:48;;;;;;;5.90;4.13;;;2.90;99.90;;;;;;5021310;28;20299;-79
2023/01/28 00:36:24;;;;;;;7.72;4.75;;;3.00;99.90;;;;;;4953836;28;20591;-78
2023/01/28 00:38:53;;;;;;;4.45;3.40;;;2.90;99.90;;;;;;5019931;28;20227;-79
2023/01/28 00:41:22;;;;;;;8.60;4.60;;;2.90;99.90;;;;;;5020274;28;20225;-76
2023/01/28 00:43:54;;;;;;;8.18;3.70;;;2.90;99.90;;;;;;5006605;28;20316;-76
2023/01/28 00:46:25;;;;;;;3.63;3.33;;;2.90;99.90;;;;;;4986944;28;20224;-79
2023/01/28 00:48:56;;;;;;;4.65;3.80;;;2.80;99.90;;;;;;5012157;28;20235;-79
2023/01/28 00:51:29;;;;;;;5.68;3.50;;;2.80;99.90;;;;;;5019746;28;20221;-78
2023/01/28 00:53:57;;;;;;;6.25;3.72;;;2.80;99.90;;;;;;4994926;28;20300;-76
2023/01/28 00:56:25;;;;;;;4.63;3.65;;;2.70;99.90;;;;;;5030839;28;20228;-76
2023/01/28 00:59:00;;;;;;;3.75;2.95;;;2.70;99.90;;;;;;5007814;28;20217;-78
2023/01/28 01:01:31;;;;;;;4.65;3.65;;;2.70;99.90;;;;;;4987644;28;20221;-76
2023/01/28 01:04:05;;;;;;;4.65;4.20;;;2.70;99.90;;;;;;4969222;28;20290;-78
2023/01/28 01:06:43;;;;;;;5.45;4.55;;;2.70;99.90;;;;;;4949829;28;20228;-79
2023/01/28 01:09:13;;;;;;;7.47;4.15;;;2.70;99.90;;;;;;4997851;28;20389;-77
2023/01/28 01:11:45;;;;;;;5.53;3.60;;;2.70;99.90;;;;;;5014870;28;20238;-76
2023/01/28 01:14:18;;;;;;;4.38;3.95;;;2.70;99.90;;;;;;5019686;28;20307;-76
2023/01/28 01:16:49;;;;;;;8.57;4.60;;;2.70;99.90;;;;;;5009123;28;20270;-78
2023/01/28 01:19:20;;;;;;;5.93;3.72;;;2.70;99.90;;;;;;4962872;28;20251;-78
2023/01/28 01:21:53;;;;;;;5.10;3.15;;;2.60;99.90;;;;;;5015005;28;20224;-79
2023/01/28 01:24:32;;;;;;;3.45;3.15;;;2.70;99.90;;;;;;4985286;28;20247;-76
2023/01/28 01:27:04;;;;;;;7.63;3.83;;;2.70;99.90;;;;;;4985827;28;20241;-78
2023/01/28 01:29:36;;;;;;;7.70;3.58;;;2.70;99.90;;;;;;5008803;28;20252;-79
2023/01/28 01:32:05;;;;;;;6.13;3.80;;;2.70;99.90;;;;;;5012593;28;20229;-79
2023/01/28 01:34:37;;;;;;;3.33;2.78;;;2.70;99.90;;;;;;5027609;28;20217;-78
2023/01/28 01:37:11;;;;;;;3.25;2.80;;;2.80;99.90;;;;;;5026719;28;20221;-78
2023/01/28 01:39:44;;;;;;;5.00;3.60;;;2.80;99.90;;;;;;5019354;28;20251;-76
2023/01/28 01:42:14;;;;;;;4.32;3.42;;;2.90;99.90;;;;;;5026606;28;20221;-78
2023/01/28 01:45:03;;;;;;;6.93;4.15;;;2.90;99.90;;;;;;5026661;28;20237;-77
2023/01/28 01:47:39;;;;;;;4.90;4.20;;;3.00;99.90;;;;;;5027527;28;20222;-79
2023/01/28 01:50:21;;;;;;;8.55;3.70;;;3.00;99.90;;;;;;5013800;28;20292;-76
2023/01/28 01:52:54;;;;;;;5.53;4.85;;;3.00;99.90;;;;;;4969025;28;20210;-78
2023/01/28 01:55:31;;;;;;;6.20;3.90;;;3.10;99.90;;;;;;5031337;28;20803;-77
2023/01/28 01:58:08;;;;;;;4.45;3.70;;;3.10;99.90;;;;;;4970046;28;20723;-79
2023/01/28 02:00:43;;;;;;;8.63;5.18;;;3.10;99.90;;;;;;5017357;28;20320;-78
2023/01/28 02:03:16;;;;;;;5.03;3.85;;;3.10;99.90;;;;;;5037706;28;20673;-79
2023/01/28 02:05:45;;;;;;;5.15;4.20;;;3.20;99.90;;;;;;5029599;28;20245;-77
2023/01/28 02:08:21;;;;;;;4.43;3.63;;;3.20;99.90;;;;;;5017881;28;20226;-80
2023/01/28 02:10:57;;;;;;;7.53;4.00;;;3.20;99.90;;;;;;5022053;28;20233;-77
2023/01/28 02:13:29;;;;;;;4.88;4.38;;;3.20;99.90;;;;;;5025923;28;20264;-77
2023/01/28 02:16:04;;;;;;;5.40;3.70;;;3.20;99.90;;;;;;5017968;28;20351;-81
2023/01/28 02:18:34;;;;;;;6.03;4.00;;;3.30;99.90;;;;;;5031377;28;20220;-79
2023/01/28 02:21:29;;;;;;;5.45;3.60;;;3.30;99.90;;;;;;5022210;28;20287;-80
2023/01/28 02:24:18;;;;;;;4.13;3.13;;;3.30;99.90;;;;;;5021111;28;20225;-77
2023/01/28 02:26:59;;;;;;;3.78;3.03;;;3.30;99.90;;;;;;5029219;28;20305;-76
2023/01/28 02:29:32;;;;;;;4.45;3.05;;;3.30;99.90;;;;;;5023002;28;20226;-79
2023/01/28 02:32:10;;;;;;;7.45;3.83;;;3.30;99.90;;;;;;4955093;28;20235;-76
2023/01/28 02:34:45;;;;;;;7.68;3.45;;;3.30;99.90;;;;;;4941553;28;20216;-76
2023/01/28 02:37:21;;;;;;;5.72;3.50;;;3.30;99.90;;;;;;4951203;28;20314;-76
2023/01/28 02:39:53;;;;;;;3.17;2.88;;;3.30;99.90;;;;;;4939614;28;20246;-79
2023/01/28 02:42:27;;;;;;;5.57;3.28;;;3.40;99.90;;;;;;4957897;28;20296;-78
2023/01/28 02:44:57;;;;;;;5.75;2.65;;;3.40;99.90;;;;;;4931410;28;20275;-78
2023/01/28 02:50:15;;;;;;;6.47;2.97;;;3.50;99.90;;;;;;4938450;28;20235;-76
2023/01/28 02:55:43;;;;;;;4.45;3.42;;;3.50;99.90;;;;;;4941382;28;20236;-80
2023/01/28 02:58:20;;;;;;;5.85;3.65;;;3.50;99.90;;;;;;4934302;28;20233;-76
2023/01/28 03:00:56;;;;;;;5.50;3.60;;;3.50;99.90;;;;;;4944501;28;20231;-79
2023/01/28 03:03:30;;;;;;;4.80;3.40;;;3.50;99.90;;;;;;4982069;28;20672;-76
2023/01/28 03:06:08;;;;;;;3.05;2.47;;;3.60;99.90;;;;;;4937148;28;20227;-77
2023/01/28 03:36:49;;;;;;;5.93;2.80;;;3.60;99.90;;;;;;4943744;28;20313;-79
2023/01/28 03:39:17;;;;;;;3.80;2.58;;;3.60;99.90;;;;;;4925865;28;20619;-76
2023/01/28 03:41:57;;;;;;;2.67;2.25;;;3.60;99.90;;;;;;4945260;28;20232;-76
2023/01/28 03:47:10;;;;;;;3.35;2.30;;;3.70;99.90;;;;;;4946904;28;20317;-78
2023/01/28 03:49:40;;;;;;;3.08;2.60;;;3.70;99.90;;;;;;4945795;28;20327;-77
2023/01/28 03:52:08;;;;;;;3.88;3.00;;;3.60;99.90;;;;;;4932535;28;20261;-77
2023/01/28 03:54:38;;;;;;;3.35;2.67;;;3.70;99.90;;;;;;5024894;28;20751;-77
2023/01/28 03:57:06;;;;;;;3.03;2.63;;;3.70;99.90;;;;;;4928923;28;20594;-78
2023/01/28 03:59:34;;;;;;;3.38;3.10;;;3.70;99.90;;;;;;4940161;28;20236;-77
2023/01/28 04:02:02;;;;;;;3.40;2.40;;;3.70;99.90;;;;;;4953633;28;20236;-79
2023/01/28 04:04:31;;;;;;;7.65;3.38;;;3.70;99.90;;;;;;5004892;28;20228;-79
2023/01/28 04:07:00;;;;;;;4.63;2.35;;;3.70;99.90;;;;;;4937811;28;20232;-79
2023/01/28 04:09:29;;;;;;;2.58;2.38;;;3.80;99.90;;;;;;4941405;28;20262;-79
2023/01/28 04:11:56;;;;;;;2.88;2.67;;;3.80;99.90;;;;;;4948485;28;20256;-76
2023/01/28 04:14:23;;;;;;;2.78;2.58;;;3.80;99.90;;;;;;4942457;28;20237;-79
2023/01/28 04:16:50;;;;;;;3.05;2.75;;;3.80;99.90;;;;;;4976646;28;20221;-76
2023/01/28 04:19:18;;;;;;;3.20;2.45;;;3.90;99.90;;;;;;4972464;28;20232;-79
2023/01/28 04:21:49;;;;;;;3.42;3.13;;;3.90;99.90;;;;;;4948429;28;20236;-79
2023/01/28 04:24:17;;;;;;;4.47;2.83;;;3.90;99.90;;;;;;4939863;28;20259;-76
2023/01/28 04:26:44;;;;;;;2.58;2.38;;;3.90;99.90;;;;;;4945289;28;20227;-77
2023/01/28 04:29:11;;;;;;;7.88;3.00;;;3.90;99.90;;;;;;4948819;28;20235;-79
2023/01/28 04:31:38;;;;;;;4.80;2.55;;;4.00;99.90;;;;;;4969951;28;20305;-79
2023/01/28 04:34:08;;;;;;;3.83;2.65;;;4.00;99.90;;;;;;5022410;28;20255;-79
2023/01/28 04:36:36;;;;;;;3.28;2.75;;;4.00;99.90;;;;;;5000329;28;20224;-79
2023/01/28 04:39:03;;;;;;;2.40;2.20;;;4.00;99.90;;;;;;5000913;28;20294;-77
2023/01/28 04:41:32;;;;;;;4.90;2.97;;;4.00;99.90;;;;;;4990990;28;20232;-79
2023/01/28 04:44:04;;;;;;;5.82;2.97;;;4.10;99.90;;;;;;4985228;28;20717;-79
2023/01/28 04:46:31;;;;;;;2.38;2.13;;;4.00;99.90;;;;;;4985895;28;20236;-78
2023/01/28 04:48:58;;;;;;;3.00;2.72;;;4.10;99.90;;;;;;5018287;28;20238;-78
2023/01/28 04:51:26;;;;;;;3.17;2.55;;;4.10;99.90;;;;;;4967619;28;20696;-76
2023/01/28 04:53:53;;;;;;;2.10;1.90;;;4.10;99.90;;;;;;5016950;28;20603;-77
2023/01/28 04:56:20;;;;;;;4.03;2.60;;;4.20;99.90;;;;;;5021618;28;20741;-78
2023/01/28 04:58:49;;;;;;;4.30;2.78;;;4.20;99.90;;;;;;4993719;28;20228;-78
2023/01/28 05:01:16;;;;;;;3.90;3.03;;;4.20;99.90;;;;;;5020336;28;20248;-79
2023/01/28 05:03:43;;;;;;;3.05;2.60;;;4.20;99.90;;;;;;4982980;28;20323;-75
2023/01/28 05:06:13;;;;;;;4.85;2.75;;;4.20;99.90;;;;;;4949592;28;20239;-79
2023/01/28 05:08:40;;;;;;;5.20;2.60;;;4.20;99.90;;;;;;4951613;28;20224;-79
2023/01/28 05:11:07;;;;;;;2.80;2.50;;;4.20;99.90;;;;;;4953451;28;20339;-77
2023/01/28 05:13:34;;;;;;;5.00;3.10;;;4.20;99.90;;;;;;4951398;29;20319;-75
2023/01/28 05:16:03;;;;;;;3.45;2.10;;;4.20;99.90;;;;;;4952609;28;20238;-77
2023/01/28 05:18:30;;;;;;;3.95;2.75;;;4.30;99.90;;;;;;4940828;28;20274;-79
2023/01/28 05:21:01;;;;;;;6.57;3.83;;;4.30;99.90;;;;;;4951277;28;20236;-79
2023/01/28 05:23:29;;;;;;;5.65;4.05;;;4.30;99.90;;;;;;4951535;28;20286;-79
2023/01/28 05:26:00;;;;;;;3.78;3.38;;;4.30;99.90;;;;;;4953090;28;20595;-79
2023/01/28 05:28:28;;;;;;;2.97;2.78;;;4.30;99.90;;;;;;4952227;28;20311;-77
2023/01/28 05:30:55;;;;;;;4.22;3.65;;;4.30;99.90;;;;;;5003024;28;20252;-79
2023/01/28 05:33:24;;;;;;;4.40;3.70;;;4.30;99.90;;;;;;5051642;28;20255;-77
2023/01/28 05:35:51;;;;;;;5.13;3.55;;;4.30;99.90;;;;;;5054464;28;20221;-79
2023/01/28 05:38:18;;;;;;;8.38;5.25;;;4.40;99.90;;;;;;5053964;28;20220;-79
2023/01/28 05:40:45;;;;;;;6.95;5.65;;;4.40;99.90;;;;;;5051948;28;20225;-77
2023/01/28 05:43:12;;;;;;;6.47;5.53;;;4.40;99.90;;;;;;5053866;28;20678;-80
2023/01/28 05:45:39;;;;;;;7.18;6.15;;;4.40;99.90;;;;;;5052408;28;20221;-77
2023/01/28 05:48:09;;;;;;;7.97;5.93;;;4.40;99.90;;;;;;5053204;28;20561;-77
2023/01/28 05:50:37;;;;;;;6.50;5.53;;;4.40;99.90;;;;;;5051661;28;20271;-79
2023/01/28 05:53:06;;;;;;;5.40;4.88;;;4.40;99.90;;;;;;5054350;28;20255;-79
2023/01/28 05:55:33;;;;;;;8.40;6.45;;;4.40;99.90;;;;;;5053512;28;20287;-78
2023/01/28 05:58:02;;;;;;;7.05;5.97;;;4.40;99.90;;;;;;5053408;28;20225;-78
2023/01/28 06:00:29;;;;;;;9.05;6.75;;;4.40;99.90;;;;;;5053196;28;20233;-76
2023/01/28 06:02:56;;;;;;;10.88;7.70;;;4.50;99.90;;;;;;5052886;28;20303;-76
2023/01/28 06:05:23;;;;;;;6.20;5.43;;;4.40;99.90;;;;;;5052998;28;20228;-77
2023/01/28 06:07:52;;;;;;;9.57;7.15;;;4.40;99.90;;;;;;5052185;28;20277;-79
2023/01/28 06:10:19;;;;;;;8.93;7.35;;;4.50;99.90;;;;;;5053858;28;20294;-77
2023/01/28 06:12:48;;;;;;;7.88;5.97;;;4.50;99.90;;;;;;5052247;28;20297;-80
2023/01/28 06:15:19;;;;;;;11.63;7.28;;;4.50;99.90;;;;;;5054117;28;20304;-79
2023/01/28 06:17:46;;;;;;;7.78;6.20;;;4.50;99.90;;;;;;5053034;28;20682;-77
2023/01/28 06:20:13;;;;;;;7.70;5.70;;;4.50;99.90;;;;;;5053285;28;20237;-79
2023/01/28 06:22:40;;;;;;;4.85;4.38;;;4.50;99.90;;;;;;5052457;28;20220;-77
2023/01/28 06:25:10;;;;;;;4.60;4.20;;;4.50;99.90;;;;;;5053345;28;20239;-77
2023/01/28 06:27:37;;;;;;;5.13;4.32;;;4.50;99.90;;;;;;5052523;28;20298;-77
2023/01/28 06:30:04;;;;;;;6.68;4.85;;;4.40;99.90;;;;;;5052352;28;20240;-77
2023/01/28 06:32:32;;;;;;;5.15;4.65;;;4.40;99.90;;;;;;5052969;28;20229;-76
2023/01/28 06:34:59;;;;;;;4.07;3.63;;;4.40;99.90;;;;;;5053163;28;20278;-76
2023/01/28 06:37:26;;;;;;;6.57;4.43;;;4.40;99.90;;;;;;5052833;28;20236;-76
2023/01/28 06:39:53;;;;;;;4.80;4.03;;;4.40;99.90;;;;;;5051537;28;20236;-77
2023/01/28 06:42:22;;;;;;;4.32;3.50;;;4.50;99.90;;;;;;5053078;28;20232;-77
2023/01/28 06:44:50;;;;;;;4.90;3.70;;;4.40;99.90;;;;;;5052324;28;20281;-77
2023/01/28 06:47:17;;;;;;;5.63;4.15;;;4.40;99.90;;;;;;5053185;28;20220;-79
2023/01/28 06:49:44;;;;;;;4.07;3.40;;;4.50;99.90;;;;;;5052281;28;20316;-76
2023/01/28 06:52:11;;;;;;;6.85;4.30;;;4.50;99.90;;;;;;5052853;28;20231;-77
2023/01/28 06:54:38;;;;;;;5.15;3.90;;;4.50;99.90;;;;;;5053133;28;20224;-78
2023/01/28 06:57:05;;;;;;;4.70;3.75;;;4.50;99.90;;;;;;5052715;28;20228;-78
2023/01/28 06:59:33;;;;;;;3.10;2.80;;;4.50;99.90;;;;;;5052477;28;20232;-78
2023/01/28 07:02:00;;;;;;;3.70;3.13;;;4.50;99.90;;;;;;5052915;28;20710;-76
2023/01/28 07:04:28;;;;;;;3.78;2.92;;;4.50;99.90;;;;;;5053023;28;20267;-76
2023/01/28 07:06:55;;;;;;;4.22;3.45;;;4.50;99.90;;;;;;5052242;28;20225;-75
2023/01/28 07:09:22;;;;;;;5.68;3.58;;;4.50;99.90;;;;;;5052676;28;20277;-77
2023/01/28 07:11:49;;;;;;;4.43;3.45;;;4.50;99.90;;;;;;5051098;28;20228;-77
2023/01/28 07:14:16;;;;;;;3.55;3.25;;;4.50;99.90;;;;;;5052714;28;20230;-78
2023/01/28 07:16:45;;;;;;;4.20;3.90;;;4.40;99.90;;;;;;5051761;28;20237;-78
2023/01/28 07:19:12;;;;;;;4.53;4.13;;;4.50;99.90;;;;;;5052436;28;20303;-77
2023/01/28 07:21:39;;;;;;;3.13;2.92;;;4.50;99.90;;;;;;5051901;28;20231;-76
2023/01/28 07:24:07;;;;;;;3.00;2.63;;;4.50;99.90;;;;;;5052285;28;20316;-75
2023/01/28 07:26:34;;;;;;;2.35;2.20;;;4.50;99.90;;;;;;5044206;28;20267;-75
2023/01/28 07:29:01;;;;;;;3.65;3.35;;;4.50;99.90;;;;;;5052127;28;20235;-76
2023/01/28 07:31:28;;;;;;;3.38;3.08;;;4.60;99.90;;;;;;5052428;28;20229;-76
2023/01/28 07:33:57;;;;;;;4.18;3.00;;;4.60;99.90;;;;;;5041978;28;20676;-78
2023/01/28 07:36:25;;;;;;;2.78;2.47;;;4.60;99.90;;;;;;5051832;28;20300;-78
2023/01/28 07:38:52;;;;;;;5.20;2.70;;;4.50;99.90;;;;;;5051233;28;20221;-78
2023/01/28 07:41:19;;;;;;;3.45;3.00;;;4.60;99.90;;;;;;5052652;28;20289;-79
2023/01/28 07:43:46;;;;;;;4.40;3.30;;;4.60;99.90;;;;;;5051505;28;20565;-77
2023/01/28 07:46:13;;;;;;;2.65;2.20;;;4.60;99.90;;;;;;5052005;28;20645;-77
2023/01/28 07:48:49;;;;;;;4.97;2.40;;;4.60;99.90;;;;;;5056136;28;20224;-79
2023/01/28 07:51:18;;;;;;;3.13;2.30;;;4.60;99.90;;;;;;5056282;28;20269;-77
2023/01/28 07:53:45;;;;;;;2.50;2.30;;;4.60;99.90;;;;;;5056309;28;20228;-77
2023/01/28 07:56:12;;;;;;;2.80;2.13;;;4.60;99.90;;;;;;5055903;28;20484;-77
2023/01/28 07:58:40;;;;;;;3.33;2.83;;;4.70;99.90;;;;;;5055822;28;20216;-76
2023/01/28 08:01:07;;;;;;;3.72;2.42;;;4.70;99.90;;;;;;5055537;28;20251;-76
2023/01/28 08:03:34;;;;;;;3.28;2.60;;;4.70;99.90;;;;;;5056609;28;20535;-77
2023/01/28 08:06:04;;;;;;;11.82;8.07;;;4.70;99.90;;;;;;5055335;28;20240;-79
2023/01/28 08:08:36;;;;;;;24.25;17.58;;;4.70;99.90;;;;;;5055832;28;20750;-76
2023/01/28 08:11:09;;;;;;;19.17;14.80;;;4.80;99.90;;;;;;5044899;28;20260;-79
2023/01/28 08:13:36;;;;;;;14.30;12.80;;;4.70;99.90;;;;;;5056132;28;20300;-77
2023/01/28 08:16:04;;;;;;;11.82;8.27;;;4.70;99.90;;;;;;5055260;28;20224;-79
2023/01/28 08:18:36;;;;;;;5.95;5.45;;;4.70;99.90;;;;;;5056157;28;20573;-77
2023/01/28 08:21:03;;;;;;;5.65;5.20;;;4.80;99.90;;;;;;5054438;28;20613;-77
2023/01/28 08:23:33;;;;;;;6.80;6.25;;;4.80;99.90;;;;;;5057526;28;20220;-78
2023/01/28 08:26:01;;;;;;;6.10;4.82;;;4.80;99.90;;;;;;5057249;28;20736;-78
2023/01/28 08:28:32;;;;;;;3.22;3.03;;;4.80;99.90;;;;;;5056403;28;20319;-76
2023/01/28 08:31:00;;;;;;;3.90;3.50;;;4.80;99.90;;;;;;5053851;28;20244;-76
2023/01/28 08:33:28;;;;;;;4.10;3.80;;;4.80;99.90;;;;;;5056882;28;20228;-76
2023/01/28 08:35:55;;;;;;;3.78;2.92;;;4.80;99.90;;;;;;5061038;28;20221;-79
2023/01/28 08:38:33;;;;;;;2.50;2.10;;;4.90;99.80;;;;;;5060983;28;20225;-78
2023/01/28 08:41:01;;;;;;;2.97;2.15;;;4.90;99.60;;;;;;5058627;28;20540;-79
2023/01/28 08:43:29;;;;;;;3.38;2.70;;;4.90;99.30;;;;;;5056167;28;20224;-76
2023/01/28 08:45:56;;;;;;;4.07;3.58;;;4.90;99.20;;;;;;5055626;28;20323;-78
2023/01/28 08:48:24;;;;;;;3.10;2.80;;;4.90;99.40;;;;;;5054051;28;20282;-76
2023/01/28 08:50:51;;;;;;;2.92;2.45;;;4.90;99.10;;;;;;5054584;28;20331;-75
2023/01/28 08:53:19;;;;;;;2.17;2.00;;;5.00;99.10;;;;;;5054417;28;20240;-79
2023/01/28 08:56:07;;;;;;;3.10;2.80;;;5.00;98.90;;;;;;5055202;28;20212;-78
2023/01/28 08:58:35;;;;;;;2.65;2.10;;;5.00;99.20;;;;;;5043396;28;20224;-78
2023/01/28 09:01:05;;;;;;;3.45;2.28;;;5.00;99.20;;;;;;5053818;28;20240;-77
2023/01/28 09:03:38;;;;;;;3.40;2.47;;;5.00;99.20;;;;;;5054261;28;20275;-76
2023/01/28 09:06:06;;;;;;;3.83;3.53;;;5.00;99.20;;;;;;5034248;28;20343;-78
2023/01/28 09:08:34;;;;;;;3.60;3.10;;;5.00;99.20;;;;;;5054197;28;20736;-76
2023/01/28 09:11:03;;;;;;;3.47;3.15;;;5.00;99.00;;;;;;5053679;28;20255;-78
2023/01/28 09:13:33;;;;;;;3.25;2.42;;;5.10;99.10;;;;;;5054525;28;20225;-79
2023/01/28 09:16:05;;;;;;;2.70;2.50;;;5.10;99.10;;;;;;5053491;28;20251;-79
2023/01/28 09:18:32;;;;;;;2.90;2.70;;;5.10;98.90;;;;;;5056324;28;20228;-78
2023/01/28 09:21:07;;;;;;;2.47;2.28;;;5.10;98.90;;;;;;5053988;28;20263;-80
2023/01/28 09:23:36;;;;;;;2.45;1.70;;;5.20;98.90;;;;;;5045518;28;20677;-78
2023/01/28 09:26:04;;;;;;;4.07;1.50;;;5.10;98.70;;;;;;5053499;28;20228;-78
2023/01/28 09:28:34;;;;;;;2.30;1.70;;;5.10;98.50;;;;;;5054567;28;20224;-79
2023/01/28 09:31:04;;;;;;;3.25;1.95;;;5.10;98.40;;;;;;5052401;28;20297;-78
2023/01/28 09:33:32;;;;;;;1.50;1.40;;;5.20;98.40;;;;;;5054214;28;20225;-78
2023/01/28 09:36:00;;;;;;;2.63;2.05;;;5.10;98.30;;;;;;5053655;28;20220;-79
2023/01/28 09:38:33;;;;;;;2.25;1.77;;;5.10;98.20;;;;;;5054590;28;20228;-79
2023/01/28 09:41:02;;;;;;;2.60;1.60;;;5.20;97.70;;;;;;5053642;28;20317;-77
2023/01/28 09:43:47;;;;;;;1.80;1.48;;;5.20;97.70;;;;;;5056214;28;20232;-78
2023/01/28 09:46:18;;;;;;;4.68;1.63;;;5.20;97.70;;;;;;5054222;28;20290;-76
2023/01/28 09:48:48;;;;;;;1.60;1.50;;;5.20;97.70;;;;;;5054110;28;20260;-76
2023/01/28 09:51:30;;;;;;;3.08;2.75;;;5.10;97.80;;;;;;5053632;28;20228;-75
2023/01/28 09:54:04;;;;;;;14.05;9.57;;;5.20;97.90;;;;;;5051481;28;20224;-78
2023/01/28 09:56:35;;;;;;;8.02;6.82;;;5.20;97.80;;;;;;5054309;28;20216;-79
2023/01/28 09:59:17;;;;;;;6.85;5.82;;;5.20;98.00;;;;;;5052378;28;20221;-78
2023/01/28 10:01:53;;;;;;;3.15;2.85;;;5.30;98.00;;;;;;5053772;28;20746;-78
2023/01/28 10:04:37;;;;;;;1.67;1.58;;;5.30;98.00;;;;;;5053128;28;20694;-76
2023/01/28 10:07:17;;;;;;;3.15;1.63;;;5.30;97.80;;;;;;5052833;28;20251;-78
2023/01/28 10:09:50;;;;;;;1.60;1.40;;;5.30;97.70;;;;;;5054495;28;20233;-78
2023/01/28 10:12:38;;;;;;;1.98;1.80;;;5.30;97.70;;;;;;5052985;28;20233;-78
2023/01/28 10:15:29;;;;;;;2.67;2.08;;;5.40;97.70;;;;;;5043817;28;20248;-78
2023/01/28 10:18:04;;;;;;;2.47;2.13;;;5.40;97.60;;;;;;5053110;28;20228;-78
2023/01/28 10:20:36;;;;;;;3.63;2.28;;;5.40;97.60;;;;;;5052313;28;20662;-78
2023/01/28 10:23:11;;;;;;;3.70;2.20;;;5.40;97.50;;;;;;5053105;28;20239;-77
2023/01/28 10:25:43;;;;;;;2.17;1.70;;;5.40;97.70;;;;;;5041006;28;20285;-76
2023/01/28 10:28:19;;;;;;;2.03;1.80;;;5.40;97.60;;;;;;5052405;28;20232;-76
2023/01/28 10:30:47;;;;;;;2.25;2.00;;;5.40;97.40;;;;;;5052270;28;20309;-75
2023/01/28 10:33:20;;;;;;;5.63;2.22;;;5.50;97.40;;;;;;5051419;28;20229;-77
2023/01/28 10:35:48;;;;;;;3.50;1.42;;;5.50;97.30;;;;;;5052204;28;20228;-76
2023/01/28 10:41:17;;;;;;;2.15;1.65;;;5.50;97.20;;;;;;5040701;28;20224;-76
2023/01/28 10:43:44;;;;;;;2.83;1.55;;;5.50;96.90;;;;;;5052696;28;20228;-77
2023/01/28 10:46:32;;;;;;;3.17;1.85;;;5.50;96.90;;;;;;5040587;28;20229;-78
2023/01/28 10:49:12;;;;;;;3.10;2.78;;;5.60;96.90;;;;;;5052830;28;20247;-76
2023/01/28 10:51:41;;;;;;;2.40;2.20;;;5.60;96.70;;;;;;5052175;28;20297;-78
2023/01/28 10:54:21;;;;;;;4.35;3.05;;;5.50;96.70;;;;;;5052197;28;20301;-76
2023/01/28 10:56:50;;;;;;;1.75;1.48;;;5.50;96.70;;;;;;5053093;28;20225;-79
2023/01/28 10:59:31;;;;;;;1.83;1.70;;;5.50;96.70;;;;;;5052840;28;20397;-77
2023/01/28 11:02:05;;;;;;;1.90;1.80;;;5.50;96.80;;;;;;5041599;28;20231;-78
2023/01/28 11:04:35;;;;;;;3.33;1.55;;;5.60;96.90;;;;;;5050936;28;20229;-79
2023/01/28 11:07:04;;;;;;;2.85;1.23;;;5.50;96.80;;;;;;5051832;28;20293;-78
2023/01/28 11:09:34;;;;;;;1.75;1.40;;;5.60;96.90;;;;;;5051720;28;20248;-78
2023/01/28 11:12:13;;;;;;;1.98;1.80;;;5.50;96.80;;;;;;5052199;28;20224;-79
2023/01/28 11:14:50;;;;;;;1.30;1.20;;;5.50;96.60;;;;;;5052237;28;20672;-78
2023/01/28 11:17:23;;;;;;;1.52;1.20;;;5.60;96.60;;;;;;5048927;28;20563;-78
2023/01/28 11:19:53;;;;;;;4.95;3.47;;;5.60;97.00;;;;;;5041449;28;20225;-79
2023/01/28 11:22:28;;;;;;;5.35;4.80;;;5.60;96.80;;;;;;5042753;28;20231;-79
2023/01/28 11:24:57;;;;;;;5.40;4.45;;;5.60;96.70;;;;;;5056664;28;20231;-78
2023/01/28 11:27:31;;;;;;;4.20;2.80;;;5.60;96.70;;;;;;5056603;28;20228;-78
2023/01/28 11:30:02;;;;;;;2.88;1.95;;;5.70;96.80;;;;;;5054692;28;20223;-76
2023/01/28 11:32:31;;;;;;;3.13;1.83;;;5.60;96.70;;;;;;5054947;28;20282;-76
2023/01/28 11:35:02;;;;;;;2.83;2.63;;;5.60;96.70;;;;;;5055535;28;20255;-78
2023/01/28 11:37:30;;;;;;;6.43;3.55;;;5.70;96.80;;;;;;5056285;28;20677;-76
2023/01/28 11:40:23;;;;;;;5.43;3.67;;;5.60;97.00;;;;;;5054688;28;20727;-78
2023/01/28 11:42:51;;;;;;;4.18;2.85;;;5.60;97.30;;;;;;5055744;28;20500;-78
2023/01/28 11:45:27;;;;;;;4.55;3.15;;;5.60;97.70;;;;;;5056122;28;20229;-76
2023/01/28 11:48:12;;;;;;;2.78;1.70;;;5.70;98.10;;;;;;5054908;28;20232;-78
2023/01/28 11:50:51;;;;;;;2.42;1.95;;;5.60;98.40;;;;;;5052752;28;20229;-77
2023/01/28 11:53:50;;;;;;;3.50;1.50;;;5.60;98.80;;;;;;5056003;28;20220;-79
2023/01/28 11:56:39;;;;;;;6.30;3.50;;;5.60;99.00;;;;;;5056201;28;20212;-79
2023/01/28 11:59:22;;;;;;;4.40;2.92;;;5.60;99.30;;;;;;5054561;28;20224;-77
2023/01/28 12:02:00;;;;;;;5.13;2.25;;;5.60;99.40;;;;;;5055075;28;20282;-79
2023/01/28 12:04:46;;;;;;;2.50;2.05;;;5.60;99.60;;;;;;5054213;28;20728;-78
2023/01/28 12:07:35;;;;;;;1.60;1.42;;;5.50;99.60;;;;;;5046258;28;20225;-79
2023/01/28 12:10:18;;;;;;;2.88;2.28;;;5.50;99.80;;;;;;5056590;28;20274;-76
2023/01/28 12:13:04;;;;;;;2.70;1.83;;;5.50;99.90;;;;;;5057278;28;20279;-79
2023/01/28 12:15:56;;;;;;;1.80;1.70;;;5.50;99.90;;;;;;5055934;28;20248;-76
2023/01/28 12:18:57;;;;;;;2.38;1.65;;;5.50;99.90;;;;;;5055599;28;20221;-79
2023/01/28 12:21:37;;;;;;;3.53;2.88;;;5.50;99.90;;;;;;5048117;28;20224;-77
2023/01/28 12:24:23;;;;;;;2.92;2.60;;;5.50;99.90;;;;;;5056042;28;20231;-76
2023/01/28 12:27:01;;;;;;;4.57;3.67;;;5.50;99.90;;;;;;5037326;28;20312;-79
2023/01/28 12:29:38;;;;;;;4.85;3.05;;;5.50;99.90;;;;;;5038519;28;20308;-76
2023/01/28 12:32:37;;;;;;;3.78;2.70;;;5.50;99.90;;;;;;5035199;28;20221;-79
2023/01/28 12:35:31;;;;;;;11.13;3.67;;;5.50;99.90;;;;;;5043954;28;20224;-78
2023/01/28 12:38:21;;;;;;;1.73;1.60;;;5.50;99.90;;;;;;5047388;28;20315;-77
2023/01/28 12:41:08;;;;;;;1.60;1.50;;;5.50;99.90;;;;;;5055848;28;20536;-76
2023/01/28 12:43:50;;;;;;;2.13;1.65;;;5.50;99.90;;;;;;5046440;28;20251;-77
2023/01/28 12:46:27;;;;;;;2.10;2.00;;;5.50;99.90;;;;;;5058154;28;20286;-78
2023/01/28 12:49:04;;;;;;;2.58;1.70;;;5.50;99.90;;;;;;5061822;28;20251;-78
2023/01/28 12:51:44;;;;;;;4.30;2.30;;;5.50;99.90;;;;;;5061119;28;20228;-79
2023/01/28 12:54:18;;;;;;;2.40;2.20;;;5.50;99.90;;;;;;5058754;28;20217;-76
2023/01/28 12:56:54;;;;;;;1.88;1.70;;;5.50;99.90;;;;;;5054512;28;20221;-76
2023/01/28 12:59:37;;;;;;;2.55;1.85;;;5.50;99.90;;;;;;5043587;28;20240;-76
2023/01/28 13:02:33;;;;;;;2.15;1.70;;;5.50;99.90;;;;;;5045830;28;20244;-77
2023/01/28 13:05:08;;;;;;;1.70;1.60;;;5.50;99.90;;;;;;5057482;28;20216;-79
2023/01/28 13:07:44;;;;;;;1.83;1.52;;;5.60;99.90;;;;;;5057108;28;20235;-79
2023/01/28 13:10:25;;;;;;;1.90;1.70;;;5.50;99.90;;;;;;5053653;28;20224;-79
2023/01/28 13:12:54;;;;;;;1.83;1.42;;;5.50;99.90;;;;;;5052729;28;20228;-79
2023/01/28 13:15:28;;;;;;;1.80;1.70;;;5.50;99.90;;;;;;5046222;28;20303;-79
2023/01/28 13:18:06;;;;;;;2.90;2.65;;;5.50;99.90;;;;;;5053136;28;20318;-76
2023/01/28 13:20:57;;;;;;;2.05;1.45;;;5.50;99.90;;;;;;5035456;28;20235;-79
2023/01/28 13:23:41;;;;;;;4.15;2.35;;;5.40;99.90;;;;;;5041559;28;20292;-77
2023/01/28 13:26:46;;;;;;;3.47;2.70;;;5.40;99.90;;;;;;5055399;28;20221;-77
2023/01/28 13:29:37;;;;;;;5.35;2.78;;;5.30;99.90;;;;;;5041675;28;20311;-80
2023/01/28 13:32:30;;;;;;;2.20;2.00;;;5.30;99.90;;;;;;5060710;28;20837;-79
2023/01/28 13:35:36;;;;;;;4.35;2.00;;;5.30;99.90;;;;;;5057400;28;20224;-80
2023/01/28 13:38:16;;;;;;;2.05;1.73;;;5.20;99.90;;;;;;5035953;28;20236;-79
2023/01/28 13:41:05;;;;;;;2.72;2.47;;;5.30;99.90;;;;;;5048602;28;20235;-77
2023/01/28 13:43:48;;;;;;;2.53;2.22;;;5.20;99.90;;;;;;5056744;28;20227;-77
2023/01/28 13:46:30;;;;;;;2.45;1.40;;;5.20;99.90;;;;;;5054209;28;20229;-77
2023/01/28 13:49:12;;;;;;;2.75;1.80;;;5.30;99.90;;;;;;5061074;28;20676;-79
2023/01/28 13:51:56;;;;;;;3.70;2.05;;;5.30;99.90;;;;;;5055850;28;20216;-78
2023/01/28 13:54:25;;;;;;;2.35;2.15;;;5.30;99.90;;;;;;5054705;28;20216;-76
2023/01/28 13:57:29;;;;;;;2.60;2.00;;;5.30;99.90;;;;;;5053973;28;20232;-76
2023/01/28 14:00:11;;;;;;;3.15;2.60;;;5.30;99.90;;;;;;5055464;28;20232;-79
2023/01/28 14:03:07;;;;;;;5.50;4.97;;;5.40;99.90;;;;;;5044757;28;20228;-77
2023/01/28 14:06:15;;;;;;;7.38;6.68;;;5.40;99.90;;;;;;5055287;28;20220;-77
2023/01/28 14:09:22;;;;;;;9.30;4.68;;;5.40;99.90;;;;;;5056584;28;20224;-77